Mount Auburn, IL (62547)

2:08 PM CST on November 24, 2014 (GMT -0600)
South Weather Station | Change Station
CLOSE
Current Station
Personal Weather Station
Location: Mechanicsburg, IL
Elevation: 587 ft
Nearby Weather Stations
Active Advisory: Wind Advisory Active Notice: Local Storm Report

Elev 587 ft 39.80 °N, 89.40 °W | Updated 2 seconds ago

Overcast
Overcast
34.9 °F
Feels Like 26 °F
N
13.0
Wind Variable Wind from West
Gusts 25.0 mph

Today
High -- | Low -- °F
--% Chance of Precip.
Yesterday
High -- | Low -- °F
Precip. -- in
6:51 AM 4:35 PM
Waxing Crescent, 7% visible
Pressure 29.69 in
Visibility 10.0 miles
Clouds Overcast 2600 ft
Windchill 26 °F
Dew Point 29 °F
Humidity 79%
Rainfall 0.32 in
Snow Depth Not available.
UV 1 out of 12
Pollen .10 out of 12
Air Quality Not available.
Flu Activity Not available.
METAR KTAZ 241955Z AUTO 26013KT 10SM OVC026 01/M01 A2969 RMK AO2

More Conditions Fewer Conditions

Pressure 29.69 in
Visibility 10.0 miles
Clouds Overcast 2600 ft
Windchill 26 °F
Dew Point 29 °F
Humidity 79%
Rainfall 0.32 in
Snow Depth Not available.
UV 1 out of 12
Pollen .10 out of 12
Air Quality Not available.
Flu Activity Not available.
METAR KTAZ 241955Z AUTO 26013KT 10SM OVC026 01/M01 A2969 RMK AO2

More Conditions Fewer Conditions

10-Day Weather Forecast

Almanac

Astronomy

Nov. 24, 2014 Rise Set
Actual Time
Civil Twilight
Nautical Twilight
Astronomical Twilight
Moon
Length of Visible Light
Length of Day
Tomorrow will be .
, % of the Moon is Illuminated

Today's Extremes

State Highs State Lows

Community

WunderPhotos

Upload Photos

1,773,401 photos uploaded!

WunderBlogs® & News

Nearby

Air Quality

  Air Quality AQ Index Pollutant
Not available.

Snow Depth

Station Depth Elevation

Earthquake Activity

City Distance Mag. Time & Date
Minimum magnitude displayed is 2.5.

Coastal Water Temperatures

Place Temperature

Nearby Weather Stations